createdAt,value
2022-11-04T00:00:28.499Z,2.50
2022-11-04T00:02:57.545Z,1.10
2022-11-04T00:05:25.150Z,1.33
2022-11-04T00:08:10.139Z,0.70
2022-11-04T00:10:56.572Z,1.35
2022-11-04T00:13:24.105Z,0.95
2022-11-04T00:16:09.263Z,1.83
2022-11-04T00:18:37.115Z,1.67
2022-11-04T00:21:22.137Z,1.98
2022-11-04T00:24:07.540Z,1.48
2022-11-04T00:26:54.016Z,2.07
2022-11-04T00:29:21.640Z,1.27
2022-11-04T00:32:03.177Z,1.48
2022-11-04T00:34:30.719Z,1.13
2022-11-04T00:36:58.487Z,6.25
2022-11-04T00:39:27.121Z,1.33
2022-11-04T00:41:57.149Z,1.40
2022-11-04T00:44:24.926Z,1.58
2022-11-04T00:46:52.501Z,1.98
2022-11-04T00:49:20.065Z,3.20
2022-11-04T00:51:47.633Z,1.73
2022-11-04T00:54:15.405Z,1.73
2022-11-04T00:56:43.439Z,2.05
2022-11-04T00:59:14.550Z,1.80
2022-11-04T01:01:43.752Z,2.47
2022-11-04T01:04:11.832Z,2.45
2022-11-04T01:06:39.836Z,2.58
2022-11-04T01:09:09.381Z,2.28
2022-11-04T01:11:36.951Z,3.28
2022-11-04T01:14:04.507Z,4.00
2022-11-04T01:16:33.630Z,2.65
2022-11-04T01:19:02.674Z,3.67
2022-11-04T01:21:30.216Z,2.47
2022-11-04T01:23:57.842Z,3.60
2022-11-04T01:26:27.421Z,2.40
2022-11-04T01:28:56.634Z,3.17
2022-11-04T01:31:27.121Z,2.50
2022-11-04T01:33:56.801Z,2.92
2022-11-04T01:36:25.617Z,2.78
2022-11-04T01:38:53.257Z,1.90
2022-11-04T01:41:22.726Z,2.72
2022-11-04T01:43:52.750Z,3.33
2022-11-04T01:46:28.959Z,2.80
2022-11-04T01:49:04.024Z,3.75
2022-11-04T01:51:36.014Z,4.35
2022-11-04T01:54:06.148Z,3.47
2022-11-04T01:56:35.015Z,2.90
2022-11-04T01:59:09.983Z,4.35
2022-11-04T02:01:37.955Z,4.50
2022-11-04T02:04:25.057Z,3.85
2022-11-04T02:06:55.521Z,3.63
2022-11-04T02:09:25.095Z,5.38
2022-11-04T02:12:10.468Z,4.07
2022-11-04T02:14:38.336Z,3.75
2022-11-04T02:17:18.313Z,4.38
2022-11-04T02:20:09.663Z,5.38
2022-11-04T02:22:59.886Z,6.35
2022-11-04T02:26:03.187Z,5.60
2022-11-04T02:28:52.208Z,4.22
2022-11-04T02:31:28.717Z,4.63
2022-11-04T02:34:06.475Z,7.03
2022-11-04T02:36:43.049Z,6.40
2022-11-04T02:39:21.684Z,6.82
2022-11-04T02:41:57.559Z,6.00
2022-11-04T02:44:31.627Z,6.50
2022-11-04T02:47:04.548Z,7.25
2022-11-04T02:49:39.388Z,6.22
2022-11-04T02:52:09.647Z,9.43
2022-11-04T02:54:43.166Z,5.50
2022-11-04T02:57:15.147Z,5.82
2022-11-04T02:59:47.557Z,8.07
2022-11-04T03:02:23.671Z,6.05
2022-11-04T03:04:53.513Z,8.95
2022-11-04T03:07:25.289Z,6.80
2022-11-04T03:09:57.559Z,6.68
2022-11-04T03:12:29.852Z,7.55
2022-11-04T03:15:03.880Z,7.37
2022-11-04T03:17:36.706Z,5.90
2022-11-04T03:20:08.592Z,5.65
2022-11-04T03:22:38.724Z,6.53
2022-11-04T03:25:09.053Z,5.88
2022-11-04T03:27:46.977Z,5.83
2022-11-04T03:33:02.102Z,5.30
2022-11-04T03:35:30.062Z,6.20
2022-11-04T03:37:58.933Z,5.33
2022-11-04T03:40:28.077Z,6.03
2022-11-04T03:43:00.265Z,8.00
2022-11-04T03:45:28.492Z,7.10
2022-11-04T03:47:57.933Z,7.72
2022-11-04T03:50:35.018Z,6.82
2022-11-04T03:53:02.620Z,5.28
2022-11-04T03:55:39.649Z,8.60
2022-11-04T03:58:16.185Z,4.70
2022-11-04T04:00:50.736Z,9.18
2022-11-04T04:03:26.456Z,6.70
2022-11-04T04:05:56.757Z,6.72
2022-11-04T04:08:35.400Z,5.72
2022-11-04T04:11:10.609Z,6.40
2022-11-04T04:13:45.952Z,7.70
2022-11-04T04:16:20.075Z,6.40
2022-11-04T04:18:57.550Z,6.88
2022-11-04T04:21:30.880Z,6.15
2022-11-04T04:24:18.336Z,4.65
2022-11-04T04:27:05.149Z,6.78
2022-11-04T04:29:33.485Z,6.95
2022-11-04T04:32:03.041Z,7.97
2022-11-04T04:34:34.178Z,4.40
2022-11-04T04:37:04.548Z,7.20
2022-11-04T04:39:55.348Z,4.97
2022-11-04T04:42:40.840Z,5.18
2022-11-04T04:45:09.976Z,5.70
2022-11-04T04:47:42.832Z,4.47
2022-11-04T04:50:13.980Z,6.95
2022-11-04T04:52:44.062Z,5.05
2022-11-04T04:55:12.867Z,6.53
2022-11-04T04:57:40.520Z,4.72
2022-11-04T05:00:10.480Z,5.65
2022-11-04T05:02:38.204Z,5.25
2022-11-04T05:05:07.041Z,4.93
2022-11-04T05:07:36.033Z,6.43
2022-11-04T05:10:03.835Z,4.32
2022-11-04T05:12:52.001Z,5.87
2022-11-04T05:15:19.571Z,4.55
2022-11-04T05:17:47.164Z,8.13
2022-11-04T05:20:14.839Z,6.32
2022-11-04T05:22:43.735Z,5.33
2022-11-04T05:25:11.496Z,6.93
2022-11-04T05:27:39.145Z,6.68
2022-11-04T05:30:08.429Z,6.72
2022-11-04T05:32:36.219Z,5.10
2022-11-04T05:35:04.291Z,5.35
2022-11-04T05:37:32.908Z,5.10
2022-11-04T05:40:01.850Z,4.25
2022-11-04T05:42:30.472Z,4.13
2022-11-04T05:44:58.025Z,5.15
2022-11-04T05:47:25.586Z,7.32
2022-11-04T05:49:53.224Z,7.47
2022-11-04T05:52:20.795Z,6.40
2022-11-04T05:54:48.405Z,4.53
2022-11-04T05:57:17.324Z,6.78
2022-11-04T05:59:46.008Z,6.15
2022-11-04T06:02:13.783Z,6.72
2022-11-04T06:04:41.784Z,6.82
2022-11-04T06:07:10.335Z,7.43
2022-11-04T06:09:41.047Z,9.02
2022-11-04T06:12:11.275Z,7.20
2022-11-04T06:14:40.169Z,7.25
2022-11-04T06:17:08.002Z,7.85
2022-11-04T06:19:35.634Z,6.32
2022-11-04T06:22:04.107Z,5.03
2022-11-04T06:24:31.650Z,7.18
2022-11-04T06:26:59.325Z,7.53
2022-11-04T06:29:26.913Z,5.10
2022-11-04T06:31:55.847Z,5.78
2022-11-04T06:34:23.423Z,6.57
2022-11-04T06:36:51.180Z,7.32
2022-11-04T06:39:18.749Z,5.97
2022-11-04T06:41:50.434Z,6.47
2022-11-04T06:44:19.540Z,6.87
2022-11-04T06:46:47.271Z,4.90
2022-11-04T06:49:18.724Z,6.47
2022-11-04T06:51:46.757Z,5.63
2022-11-04T06:54:15.359Z,4.57
2022-11-04T06:56:43.422Z,5.10
2022-11-04T06:59:16.151Z,7.90
2022-11-04T07:01:44.036Z,8.65
2022-11-04T07:04:11.640Z,5.70
2022-11-04T07:06:44.280Z,7.05
2022-11-04T07:09:14.103Z,6.38
2022-11-04T07:11:42.946Z,7.10
2022-11-04T07:14:10.988Z,7.70
2022-11-04T07:16:38.631Z,6.93
2022-11-04T07:19:06.351Z,6.60
2022-11-04T07:21:34.092Z,8.63
2022-11-04T07:24:03.436Z,8.70
2022-11-04T07:26:31.065Z,7.55
2022-11-04T07:29:00.801Z,8.52
2022-11-04T07:31:28.999Z,7.95
2022-11-04T07:33:57.569Z,7.07
2022-11-04T07:36:25.219Z,4.80
2022-11-04T07:38:52.879Z,6.07
2022-11-04T07:41:22.897Z,9.15
2022-11-04T07:43:53.029Z,5.75
2022-11-04T07:46:21.681Z,6.75
2022-11-04T07:48:49.246Z,4.15
2022-11-04T07:51:21.079Z,9.05
2022-11-04T07:53:48.879Z,12.80
2022-11-04T07:56:16.495Z,8.27
2022-11-04T07:58:46.532Z,10.73
2022-11-04T08:01:16.193Z,10.38
2022-11-04T08:03:44.042Z,7.22
2022-11-04T08:06:13.840Z,5.18
2022-11-04T08:08:43.439Z,5.47
2022-11-04T08:11:17.067Z,6.03
2022-11-04T08:13:48.697Z,5.18
2022-11-04T08:16:18.277Z,6.97
2022-11-04T08:18:46.713Z,5.15
2022-11-04T08:21:15.054Z,4.63
2022-11-04T08:23:42.917Z,5.97
2022-11-04T08:26:11.794Z,5.50
2022-11-04T08:28:39.675Z,5.63
2022-11-04T08:31:11.799Z,4.45
2022-11-04T08:33:40.754Z,4.68
2022-11-04T08:36:10.541Z,4.60
2022-11-04T08:38:39.810Z,6.35
2022-11-04T08:41:10.376Z,4.72
2022-11-04T08:43:38.373Z,6.70
2022-11-04T08:46:10.377Z,21.77
2022-11-04T08:48:39.356Z,6.30
2022-11-04T08:51:12.098Z,5.20
2022-11-04T08:53:39.684Z,4.90
2022-11-04T08:56:12.162Z,5.47
2022-11-04T08:58:39.771Z,7.13
2022-11-04T09:01:10.780Z,5.20
2022-11-04T09:03:39.380Z,5.17
2022-11-04T09:06:10.693Z,5.55
2022-11-04T09:08:40.042Z,6.20
2022-11-04T09:11:09.113Z,5.20
2022-11-04T09:13:39.690Z,4.03
2022-11-04T09:16:10.905Z,4.97
2022-11-04T09:18:38.509Z,7.28
2022-11-04T09:21:08.219Z,6.60
2022-11-04T09:23:35.881Z,7.45
2022-11-04T09:26:08.693Z,5.15
2022-11-04T09:28:36.606Z,6.03
2022-11-04T09:31:10.107Z,6.50
2022-11-04T09:33:37.707Z,5.82
2022-11-04T09:36:06.024Z,6.07
2022-11-04T09:38:35.081Z,5.85
2022-11-04T09:41:02.842Z,4.30
2022-11-04T09:43:51.462Z,4.68
2022-11-04T09:46:21.692Z,6.38
2022-11-04T09:48:53.656Z,4.90
2022-11-04T09:51:48.008Z,5.82
2022-11-04T09:54:17.670Z,5.95
2022-11-04T09:56:49.924Z,5.80
2022-11-04T09:59:22.474Z,7.63
2022-11-04T10:02:02.982Z,9.13
2022-11-04T10:04:45.577Z,8.52
2022-11-04T10:07:24.503Z,6.28
2022-11-04T10:10:02.812Z,7.20
2022-11-04T10:12:56.963Z,6.83
2022-11-04T10:15:39.404Z,6.10
2022-11-04T10:18:22.555Z,5.38
2022-11-04T10:20:57.976Z,7.55
2022-11-04T10:23:33.927Z,5.77
2022-11-04T10:26:10.533Z,7.28
2022-11-04T10:28:43.401Z,5.32
2022-11-04T10:31:15.283Z,6.40
2022-11-04T10:33:48.274Z,4.70
2022-11-04T10:36:17.956Z,6.40
2022-11-04T10:38:48.654Z,7.78
2022-11-04T10:41:28.417Z,6.57
2022-11-04T10:44:02.928Z,5.13
2022-11-04T10:46:45.789Z,7.88
2022-11-04T10:49:37.453Z,7.03
2022-11-04T10:52:07.467Z,5.67
2022-11-04T10:54:41.109Z,9.83
2022-11-04T10:57:10.883Z,7.10
2022-11-04T10:59:49.565Z,4.18
2022-11-04T11:02:17.867Z,6.70
2022-11-04T11:04:47.810Z,6.30
2022-11-04T11:07:22.677Z,5.83
2022-11-04T11:09:54.629Z,8.05
2022-11-04T11:12:50.080Z,6.60
2022-11-04T11:15:35.003Z,5.03
2022-11-04T11:18:15.335Z,8.65
2022-11-04T11:20:50.064Z,5.85
2022-11-04T11:23:36.438Z,6.35
2022-11-04T11:26:05.497Z,6.57
2022-11-04T11:28:37.952Z,6.18
2022-11-04T11:31:13.084Z,6.70
2022-11-04T11:33:49.176Z,7.10
2022-11-04T11:36:22.948Z,5.50
2022-11-04T11:39:04.026Z,3.95
2022-11-04T11:41:33.498Z,5.50
2022-11-04T11:44:05.736Z,7.65
2022-11-04T11:46:35.235Z,9.32
2022-11-04T11:49:05.089Z,7.00
2022-11-04T11:51:35.740Z,4.13
2022-11-04T11:54:24.314Z,4.38
2022-11-04T12:02:42.813Z,5.25
2022-11-04T12:11:10.724Z,4.63
2022-11-04T12:13:43.181Z,2.95
2022-11-04T12:16:22.736Z,3.85
2022-11-04T12:19:20.766Z,2.55
2022-11-04T12:21:55.485Z,3.42
2022-11-04T12:24:35.441Z,3.42
2022-11-04T12:27:13.778Z,5.77
2022-11-04T12:29:56.042Z,3.00
2022-11-04T12:32:33.687Z,3.67
2022-11-04T12:35:16.959Z,4.07
2022-11-04T12:37:58.527Z,4.17
2022-11-04T12:40:30.388Z,4.20
2022-11-04T12:43:13.866Z,3.50
2022-11-04T12:45:52.858Z,3.78
2022-11-04T12:48:52.999Z,3.78
2022-11-04T12:51:33.469Z,7.15
2022-11-04T12:54:27.809Z,5.57
2022-11-04T12:57:11.847Z,5.65
2022-11-04T12:59:54.304Z,5.75
2022-11-04T13:02:25.895Z,5.40
2022-11-04T13:05:01.832Z,11.73
2022-11-04T13:07:32.269Z,6.53
2022-11-04T13:10:04.746Z,4.68
2022-11-04T13:12:39.044Z,4.20
2022-11-04T13:15:17.131Z,4.70
2022-11-04T13:17:46.487Z,4.82
2022-11-04T13:20:28.536Z,7.07
2022-11-04T13:23:03.401Z,6.03
2022-11-04T13:25:40.434Z,4.45
2022-11-04T13:28:13.194Z,4.55
2022-11-04T13:30:48.624Z,3.15
2022-11-04T13:33:26.787Z,5.28
2022-11-04T13:36:02.123Z,5.85
2022-11-04T13:38:33.779Z,4.57
2022-11-04T13:41:21.318Z,2.95
2022-11-04T13:43:54.139Z,4.50
2022-11-04T13:46:30.533Z,4.53
2022-11-04T13:49:05.692Z,3.22
2022-11-04T13:51:44.545Z,3.15
2022-11-04T13:54:27.627Z,5.35
2022-11-04T13:57:06.551Z,4.15
2022-11-04T13:59:36.802Z,5.95
2022-11-04T14:02:39.660Z,7.63
2022-11-04T14:05:53.156Z,5.70
2022-11-04T14:08:21.529Z,5.28
2022-11-04T14:11:08.965Z,4.32
2022-11-04T14:13:47.652Z,4.68
2022-11-04T14:16:44.145Z,6.10
2022-11-04T14:19:57.774Z,5.20
2022-11-04T14:22:49.504Z,9.27
2022-11-04T14:25:24.844Z,7.70
2022-11-04T14:27:54.998Z,18.33
2022-11-04T14:30:45.607Z,15.23
2022-11-04T14:33:28.140Z,11.48
2022-11-04T14:35:58.189Z,10.93
2022-11-04T14:38:29.731Z,7.15
2022-11-04T14:41:22.327Z,7.78
2022-11-04T14:43:51.035Z,4.82
2022-11-04T14:46:24.276Z,6.78
2022-11-04T14:48:55.952Z,6.22
2022-11-04T14:51:27.659Z,18.85
2022-11-04T14:54:01.417Z,4.32
2022-11-04T14:56:28.978Z,4.90
2022-11-04T14:59:01.430Z,5.50
2022-11-04T15:01:35.022Z,8.15
2022-11-04T15:04:15.069Z,5.65
2022-11-04T15:06:58.455Z,5.40
2022-11-04T15:09:28.557Z,5.55
2022-11-04T15:12:24.507Z,3.55
2022-11-04T15:14:52.346Z,6.50
2022-11-04T15:17:22.932Z,6.35
2022-11-04T15:19:54.636Z,5.53
2022-11-04T15:22:23.173Z,5.40
2022-11-04T15:24:51.559Z,5.40
2022-11-04T15:27:21.335Z,3.97
2022-11-04T15:29:55.408Z,3.38
2022-11-04T15:32:23.925Z,3.72
2022-11-04T15:34:54.633Z,5.47
2022-11-04T15:37:23.565Z,4.35
2022-11-04T15:39:53.763Z,3.63
2022-11-04T15:42:43.027Z,2.65
2022-11-04T15:45:35.892Z,2.88
2022-11-04T15:48:29.728Z,5.13
2022-11-04T15:51:19.685Z,4.78
2022-11-04T15:53:54.537Z,3.85
2022-11-04T15:56:25.876Z,3.30
2022-11-04T15:58:55.617Z,4.32
2022-11-04T16:01:23.974Z,2.67
2022-11-04T16:03:54.121Z,5.55
2022-11-04T16:06:36.809Z,4.15
2022-11-04T16:09:18.426Z,5.47
2022-11-04T16:12:08.773Z,6.47
2022-11-04T16:14:36.578Z,4.32
2022-11-04T16:17:04.334Z,31.20
2022-11-04T16:19:32.814Z,38.75
2022-11-04T16:22:05.743Z,23.95
2022-11-04T16:24:35.799Z,8.13
2022-11-04T16:27:03.449Z,5.50
2022-11-04T16:29:32.671Z,5.50
2022-11-04T16:32:17.883Z,10.25
2022-11-04T16:34:46.219Z,9.20
2022-11-04T16:37:15.111Z,8.13
2022-11-04T16:39:45.012Z,11.90
2022-11-04T16:42:14.497Z,10.30
2022-11-04T16:44:47.856Z,12.73
2022-11-04T16:47:15.502Z,10.32
2022-11-04T16:49:43.055Z,8.35
2022-11-04T16:52:16.665Z,11.93
2022-11-04T16:54:44.197Z,10.20
2022-11-04T16:57:14.626Z,7.15
2022-11-04T16:59:42.587Z,8.43
2022-11-04T17:02:20.161Z,8.73
2022-11-04T17:04:47.975Z,8.05
2022-11-04T17:07:16.819Z,8.63
2022-11-04T17:09:44.456Z,8.90
2022-11-04T17:12:11.962Z,7.70
2022-11-04T17:14:39.840Z,9.40
2022-11-04T17:17:09.448Z,15.20
2022-11-04T17:19:37.015Z,29.90
2022-11-04T17:22:07.884Z,19.02
2022-11-04T17:24:37.463Z,17.63
2022-11-04T17:27:06.362Z,16.90
2022-11-04T17:29:36.039Z,14.60
2022-11-04T17:32:03.598Z,12.85
2022-11-04T17:34:31.126Z,10.05
2022-11-04T17:36:58.683Z,8.45
2022-11-04T17:39:26.200Z,9.13
2022-11-04T17:42:12.624Z,9.20
2022-11-04T17:44:40.229Z,6.95
2022-11-04T17:47:07.986Z,7.95
2022-11-04T17:49:37.996Z,8.35
2022-11-04T17:52:05.911Z,8.63
2022-11-04T17:54:33.484Z,8.77
2022-11-04T17:57:02.402Z,10.18
2022-11-04T17:59:35.379Z,9.77
2022-11-04T18:02:04.321Z,8.07
2022-11-04T18:04:32.054Z,7.55
2022-11-04T18:07:02.817Z,10.90
2022-11-04T18:09:31.026Z,9.70
2022-11-04T18:12:16.149Z,13.05
2022-11-04T18:14:45.050Z,13.15
2022-11-04T18:17:12.612Z,13.00
2022-11-04T18:19:40.371Z,11.68
2022-11-04T18:22:07.946Z,10.32
2022-11-04T18:24:35.992Z,8.93
2022-11-04T18:27:03.653Z,5.78
2022-11-04T18:29:31.666Z,5.88
2022-11-04T18:32:01.256Z,8.93
2022-11-04T18:34:28.980Z,6.00
2022-11-04T18:36:58.271Z,5.72
2022-11-04T18:39:26.141Z,7.07
2022-11-04T18:41:53.741Z,7.72
2022-11-04T18:44:24.124Z,8.40
2022-11-04T18:46:51.715Z,8.27
2022-11-04T18:49:21.092Z,8.70
2022-11-04T18:51:48.680Z,8.20
2022-11-04T18:54:16.452Z,9.77
2022-11-04T18:56:44.007Z,10.32
2022-11-04T18:59:12.819Z,13.75
2022-11-04T19:01:40.557Z,40.25
2022-11-04T19:04:09.651Z,12.47
2022-11-04T19:06:42.643Z,9.87
2022-11-04T19:09:44.896Z,10.50
2022-11-04T19:12:18.395Z,17.35
2022-11-04T19:14:45.953Z,7.90
2022-11-04T19:17:13.615Z,8.18
2022-11-04T19:19:41.540Z,10.27
2022-11-04T19:22:11.091Z,8.75
2022-11-04T19:24:39.463Z,8.98
2022-11-04T19:27:07.337Z,12.57
2022-11-04T19:29:34.941Z,8.65
2022-11-04T19:32:02.693Z,10.25
2022-11-04T19:34:30.473Z,9.47
2022-11-04T19:36:58.368Z,8.25
2022-11-04T19:39:27.868Z,10.93
2022-11-04T19:42:12.940Z,11.52
2022-11-04T19:44:41.244Z,12.75
2022-11-04T19:47:09.396Z,11.90
2022-11-04T19:49:39.107Z,11.48
2022-11-04T19:52:06.781Z,10.15
2022-11-04T19:54:35.872Z,9.93
2022-11-04T19:57:03.578Z,9.57
2022-11-04T19:59:31.408Z,11.40
2022-11-04T20:01:59.309Z,9.65
2022-11-04T20:04:27.132Z,9.10
2022-11-04T20:06:54.829Z,9.70
2022-11-04T20:09:22.609Z,10.65
2022-11-04T20:12:14.157Z,18.48
2022-11-04T20:14:42.412Z,12.13
2022-11-04T20:17:10.096Z,10.57
2022-11-04T20:19:37.811Z,10.73
2022-11-04T20:22:05.787Z,9.23
2022-11-04T20:24:33.562Z,10.02
2022-11-04T20:27:02.693Z,8.90
2022-11-04T20:29:30.429Z,10.97
2022-11-04T20:31:58.366Z,10.68
2022-11-04T20:34:31.673Z,11.88
2022-11-04T20:37:00.411Z,13.05
2022-11-04T20:39:28.076Z,11.73
2022-11-04T20:41:55.780Z,10.30
2022-11-04T20:44:24.845Z,12.20
2022-11-04T20:46:52.744Z,10.55
2022-11-04T20:49:20.596Z,9.77
2022-11-04T20:51:54.857Z,11.27
2022-11-04T20:54:23.327Z,9.70
2022-11-04T20:56:50.985Z,9.52
2022-11-04T20:59:18.753Z,9.00
2022-11-04T21:01:50.254Z,10.80
2022-11-04T21:04:20.354Z,9.23
2022-11-04T21:06:48.960Z,12.20
2022-11-04T21:09:18.330Z,11.52
2022-11-04T21:11:45.888Z,12.27
2022-11-04T21:14:16.158Z,11.60
2022-11-04T21:16:44.340Z,12.18
2022-11-04T21:19:14.451Z,12.82
2022-11-04T21:21:43.071Z,10.32
2022-11-04T21:24:13.224Z,10.73
2022-11-04T21:26:40.967Z,8.88
2022-11-04T21:29:12.668Z,11.40
2022-11-04T21:31:41.084Z,11.05
2022-11-04T21:34:08.821Z,11.93
2022-11-04T21:36:37.991Z,9.68
2022-11-04T21:39:06.168Z,9.20
2022-11-04T21:41:37.103Z,10.63
2022-11-04T21:44:08.179Z,9.77
2022-11-04T21:46:36.808Z,9.50
2022-11-04T21:49:04.878Z,8.32
2022-11-04T21:51:36.001Z,9.75
2022-11-04T21:54:07.891Z,9.93
2022-11-04T21:56:36.313Z,8.25
2022-11-04T21:59:04.608Z,7.30
2022-11-04T22:01:32.780Z,9.82
2022-11-04T22:04:01.963Z,9.32
2022-11-04T22:06:34.556Z,10.85
2022-11-04T22:09:03.530Z,10.55
2022-11-04T22:11:34.064Z,11.23
2022-11-04T22:14:03.808Z,9.95
2022-11-04T22:16:33.576Z,8.73
2022-11-04T22:19:02.713Z,10.75
2022-11-04T22:21:32.252Z,9.63
2022-11-04T22:24:00.807Z,7.30
2022-11-04T22:26:30.758Z,7.40
2022-11-04T22:29:00.658Z,8.88
2022-11-04T22:31:30.471Z,8.70
2022-11-04T22:33:59.492Z,9.70
2022-11-04T22:36:27.364Z,9.60
2022-11-04T22:38:55.820Z,7.77
2022-11-04T22:41:25.532Z,9.55
2022-11-04T22:43:53.091Z,9.75
2022-11-04T22:46:25.205Z,8.65
2022-11-04T22:48:52.904Z,7.50
2022-11-04T22:51:20.885Z,9.15
2022-11-04T22:53:56.107Z,8.38
2022-11-04T22:56:25.622Z,8.57
2022-11-04T22:58:54.083Z,7.65
2022-11-04T23:01:25.851Z,9.63
2022-11-04T23:03:53.884Z,9.13
2022-11-04T23:06:21.511Z,11.48
2022-11-04T23:08:49.164Z,10.45
2022-11-04T23:11:36.293Z,10.93
2022-11-04T23:14:21.367Z,11.23
2022-11-04T23:17:09.802Z,11.05
2022-11-04T23:19:38.349Z,12.13
2022-11-04T23:22:24.086Z,13.30
2022-11-04T23:25:07.181Z,14.33
2022-11-04T23:27:53.132Z,12.80
2022-11-04T23:30:25.419Z,11.93
2022-11-04T23:32:56.670Z,11.70
2022-11-04T23:35:43.780Z,13.13
2022-11-04T23:38:11.630Z,12.38
2022-11-04T23:40:39.966Z,12.23
2022-11-04T23:43:06.978Z,13.98
2022-11-04T23:45:52.204Z,14.73
2022-11-04T23:48:38.767Z,13.15
2022-11-04T23:51:24.335Z,15.23
2022-11-04T23:54:09.484Z,13.77
2022-11-04T23:56:54.797Z,16.42
2022-11-04T23:59:39.822Z,13.15
